• Join FlightAware (Why Join?)
  • Login
  • US Flag 
07:40AM EDT


 

Airport Tracker/Info


-or-


 

Live Flight TrackerFlight Track Log ✈ EJM20 ✈ 27-Aug-2013 ✈ KACY - KHOU

Flight Track Log - Related Links

Times and Time Zones

All times are in EDT time to prevent confusion due to time zone crossing. See the EJM20 flight status page for this flight to view local times or setup timezone preferences in your user account.

Time Position Orientation Groundspeed Altitude Reporting Facility
EDT Latitude Longitude Course Direction KTS MPH feet Rate Location/Type
09:55PM 39.4144 -74.7078 270° West 228 262 4,600  Level Washington Center
09:56PM 39.3669 -74.7861 232° Southwest 261 300 7,100 2,100 Climbing Washington Center
09:57PM 39.3133 -74.8700 230° Southwest 287 330 8,800 1,800 Climbing Washington Center
09:58PM 39.2617 -74.9589 233° Southwest 305 351 10,800 1,680 Climbing Washington Center
09:59PM 39.2333 -75.2665 270° West  Level FlightAware Approximate
09:59PM 39.2539 -75.0742 265° West 305 351 12,300  Level Washington Center
10:00PM 39.2333 -75.4254 270° West  Level FlightAware Approximate
10:00PM 39.2481 -75.1950 266° West 329 379 13,800  Level Washington Center
10:01PM 39.2422 -75.3208 267° West 344 396 15,300 1,080 Climbing Washington Center
10:02PM 39.2364 -75.4522 267° West 362 417 16,000 300 Climbing Washington Center
10:03PM 39.2239 -75.5917 263° West 375 432 16,000  Level Washington Center
10:04PM 39.2072 -75.7389 262° West 403 464 16,100 780 Climbing Washington Center
10:05PM 39.1922 -75.8781 262° West 410 472 17,600 1,440 Climbing Washington Center
10:06PM 39.1772 -76.0200 262° West 405 466 19,100 1,440 Climbing Washington Center
10:07PM 39.1622 -76.1511 262° West 399 459 20,600 1,560 Climbing Washington Center
10:08PM 39.1531 -76.2981 265° West 386 444 22,200 1,500 Climbing Washington Center
10:09PM 39.1586 -76.4294 273° West 378 435 23,700 1,440 Climbing Washington Center
10:10PM 39.1658 -76.5553 274° West 371 427 25,200 1,500 Climbing Washington Center
10:11PM 39.1586 -76.6836 266° West 365 420 26,700 1,440 Climbing Washington Center
10:12PM 39.1011 -76.8006 238° Southwest 372 428 28,200 1,440 Climbing Washington Center
10:13PM 39.0417 -76.9172 237° Southwest 377 434 29,700 1,500 Climbing Washington Center
10:14PM 38.9839 -77.0283 236° Southwest 383 441 31,200 1,500 Climbing Washington Center
10:15PM 38.9264 -77.1447 238° Southwest 388 447 32,700 1,440 Climbing Washington Center
10:16PM 38.8686 -77.2581 237° Southwest 388 447 34,200 1,380 Climbing Washington Center
10:17PM 38.8106 -77.3686 236° Southwest 388 447 35,600 1,140 Climbing Washington Center
10:18PM 38.7506 -77.4817 236° Southwest 388 447 36,500 840 Climbing Washington Center
10:19PM 38.6947 -77.5839 235° Southwest 394 453 37,300 720 Climbing Washington Center
10:20PM 38.6386 -77.7019 239° Southwest 399 459 38,000 660 Climbing Washington Center
10:21PM 38.5758 -77.8250 237° Southwest 405 466 38,700 660 Climbing Washington Center
10:22PM 38.5131 -77.9506 237° Southwest 410 472 39,400 540 Climbing Washington Center
10:23PM 38.4458 -78.0783 236° Southwest 421 484 39,800 300 Climbing Washington Center
10:24PM 38.3783 -78.2058 236° Southwest 432 497 40,000 60 Climbing Washington Center
10:25PM 38.3064 -78.3461 237° Southwest 452 520 40,000  Level Washington Center
10:26PM 38.2322 -78.4861 236° Southwest 476 548 40,000  Level Washington Center
10:27PM 38.1619 -78.6289 238° Southwest 481 554 40,000  Level Washington Center
10:28PM 38.0744 -78.7914 236° Southwest 497 572 40,000  Level Washington Center
10:29PM 37.9975 -78.9356 236° Southwest 497 572 40,000  Level Washington Center
10:30PM 37.9158 -79.0847 235° Southwest 504 580 40,000  Level Washington Center
10:31PM 37.8494 -79.2211 238° Southwest 504 580 40,000  Level Washington Center
10:32PM 37.7736 -79.3725 238° Southwest 509 586 40,000  Level Washington Center
10:33PM 37.6958 -79.5208 237° Southwest 514 592 40,000  Level Washington Center
10:34PM 37.6133 -79.6842 238° Southwest 514 592 40,000  Level Washington Center
10:35PM 37.5461 -79.8169 237° Southwest 507 583 40,000  Level Washington Center
10:36PM 37.4717 -79.9725 239° Southwest 514 592 40,000  Level Washington Center
10:37PM 37.3514 -80.1986 236° Southwest 516 594 40,000  Level Atlanta Center
10:38PM 37.2789 -80.3431 238° Southwest 511 588 40,000  Level Atlanta Center
10:39PM 37.2017 -80.4872 236° Southwest 505 581 40,000  Level Atlanta Center
10:40PM 37.1267 -80.6339 237° Southwest 505 581 40,000  Level Atlanta Center
10:41PM 37.0636 -80.7667 239° Southwest 505 581 40,000  Level Atlanta Center
10:42PM 37.0008 -80.9175 243° Southwest 500 575 40,000  Level Atlanta Center
10:43PM 36.9358 -81.0681 242° Southwest 495 570 40,000  Level Atlanta Center
10:44PM 36.8667 -81.2314 242° Southwest 495 570 40,000  Level Atlanta Center
10:45PM 36.8033 -81.3842 243° Southwest 495 570 40,000  Level Atlanta Center
10:46PM 36.7539 -81.5153 245° Southwest 476 548 40,000  Level Atlanta Center
10:47PM 36.6800 -81.6806 241° Southwest 483 556 40,000  Level Atlanta Center
10:48PM 36.6219 -81.8117 241° Southwest 483 556 40,000  Level Atlanta Center
10:49PM 36.5578 -81.9608 242° Southwest 483 556 40,000  Level Atlanta Center
10:50PM 36.4936 -82.1122 242° Southwest 483 556 40,000  Level Atlanta Center
10:51PM 36.4269 -82.2608 241° Southwest 488 562 40,000  Level Atlanta Center
10:52PM 36.3625 -82.4119 242° Southwest 494 568 40,000  Level Atlanta Center
10:53PM 36.2956 -82.5628 241° Southwest 499 574 40,000  Level Atlanta Center
10:54PM 36.2283 -82.7131 241° Southwest 504 580 40,000  Level Atlanta Center
10:55PM 36.1611 -82.8661 241° Southwest 504 580 40,000  Level Atlanta Center
10:56PM 36.0958 -83.0161 242° Southwest 504 580 40,000  Level Atlanta Center
10:57PM 36.0239 -83.1786 241° Southwest 504 580 40,000  Level Atlanta Center
10:58PM 35.9581 -83.3256 241° Southwest 497 572 40,000  Level Atlanta Center
10:59PM 35.8922 -83.4722 241° Southwest 497 572 40,000  Level Atlanta Center
11:00PM 35.8261 -83.6214 241° Southwest 497 572 40,000  Level Atlanta Center
11:01PM 35.7575 -83.7675 240° Southwest 503 579 40,000  Level Atlanta Center
11:02PM 35.6889 -83.9186 241° Southwest 503 579 40,000  Level Atlanta Center
11:03PM 35.6203 -84.0694 241° Southwest 509 586 40,000  Level Atlanta Center
11:04PM 35.5511 -84.2175 240° Southwest 504 580 40,000  Level Atlanta Center
11:05PM 35.4822 -84.3678 241° Southwest 509 586 40,000  Level Atlanta Center
11:06PM 35.4147 -84.5153 241° Southwest 504 580 40,000  Level Atlanta Center
11:07PM 35.3475 -84.6625 241° Southwest 504 580 40,000  Level Atlanta Center
11:08PM 35.2778 -84.8097 240° Southwest 504 580 40,000  Level Atlanta Center
11:09PM 35.2206 -84.9286 240° Southwest 504 580 40,000  Level Atlanta Center
11:10PM 35.1464 -85.0903 241° Southwest 504 580 40,000  Level Atlanta Center
11:11PM 35.0781 -85.2367 240° Southwest 504 580 40,000  Level Atlanta Center
11:12PM 35.0100 -85.3778 240° Southwest 504 580 40,000  Level Atlanta Center
11:13PM 34.9436 -85.5236 241° Southwest 504 580 40,000  Level Atlanta Center
11:14PM 34.8728 -85.6717 240° Southwest 504 580 40,000  Level Atlanta Center
11:15PM 34.8042 -85.8147 240° Southwest 504 580 40,000  Level Atlanta Center
11:16PM 34.7267 -85.9672 238° Southwest 499 574 40,000  Level Atlanta Center
11:17PM 34.6575 -86.1119 240° Southwest 499 574 40,000  Level Atlanta Center
11:18PM 34.5861 -86.2542 239° Southwest 499 574 40,000  Level Atlanta Center
11:19PM 34.5167 -86.4008 240° Southwest 505 581 40,000  Level Atlanta Center
11:20PM 34.4450 -86.5450 239° Southwest 505 581 40,000  Level Atlanta Center
11:21PM 34.3631 -86.7064 238° Southwest 510 587 40,000  Level Memphis Center
11:22PM 34.2922 -86.8500 239° Southwest 510 587 40,000  Level Memphis Center
11:23PM 34.2192 -87.0039 240° Southwest 520 598 40,000  Level Memphis Center
11:24PM 34.1497 -87.1444 239° Southwest 507 583 40,000  Level Memphis Center
11:25PM 34.0803 -87.2775 238° Southwest 485 558 40,000  Level Memphis Center
11:26PM 34.0086 -87.4206 239° Southwest 499 574 40,000  Level Memphis Center
11:27PM 33.9325 -87.5658 238° Southwest 505 581 40,000  Level Memphis Center
11:28PM 33.8647 -87.7056 240° Southwest 505 581 40,000  Level Memphis Center
11:29PM 33.8028 -87.8375 241° Southwest 514 592 40,000  Level Memphis Center
11:30PM 33.7328 -87.9942 242° Southwest 519 597 40,000  Level Memphis Center
11:31PM 33.6686 -88.1383 242° Southwest 513 590 40,000  Level Memphis Center
11:32PM 33.6003 -88.2847 241° Southwest 508 585 40,000  Level Memphis Center
11:33PM 33.5317 -88.4458 243° Southwest 508 585 40,000  Level Memphis Center
11:34PM 33.4731 -88.5717 241° Southwest 500 575 40,000  Level Memphis Center
11:35PM 33.4061 -88.7122 240° Southwest 494 568 40,000  Level Memphis Center
11:36PM 33.3392 -88.8553 241° Southwest 494 568 40,000  Level Memphis Center
11:37PM 33.2761 -88.9981 242° Southwest 489 563 40,000  Level Memphis Center
11:38PM 33.2086 -89.1381 240° Southwest 489 563 40,000  Level Memphis Center
11:39PM 33.1411 -89.2806 241° Southwest 489 563 40,000  Level Memphis Center
11:40PM 33.0753 -89.4178 240° Southwest 489 563 40,000  Level Memphis Center
11:41PM 33.0097 -89.5594 241° Southwest 489 563 40,000  Level Memphis Center
11:42PM 32.9394 -89.6989 239° Southwest 494 568 40,000  Level Memphis Center
11:43PM 32.8711 -89.8428 241° Southwest 502 578 40,000  Level Memphis Center
11:44PM 32.7944 -90.0039 241° Southwest 513 590 40,000  Level Memphis Center
11:45PM 32.7281 -90.1450 241° Southwest 502 578 40,000  Level Memphis Center
11:46PM 32.6594 -90.2883 240° Southwest 502 578 40,000  Level Memphis Center
11:47PM 32.5906 -90.4289 240° Southwest 502 578 40,000  Level Memphis Center
11:48PM 32.5297 -90.5544 240° Southwest 502 578 40,000  Level Memphis Center
11:50PM 32.3872 -90.8486 240° Southwest 495 570 40,000  Level Houston Center
11:51PM 32.3178 -90.9911 240° Southwest 502 578 40,000  Level Houston Center
11:52PM 32.2472 -91.1319 239° Southwest 502 578 40,000  Level Houston Center
11:53PM 32.1772 -91.2739 240° Southwest 502 578 40,000  Level Houston Center
11:54PM 32.1067 -91.4150 239° Southwest 503 579 40,000  Level Houston Center
11:55PM 32.0361 -91.5567 240° Southwest 502 578 40,000  Level Houston Center
11:56PM 31.9661 -91.6992 240° Southwest 503 579 40,000  Level Houston Center
11:57PM 31.8942 -91.8419 239° Southwest 507 583 40,000  Level Houston Center
11:58PM 31.8208 -91.9864 239° Southwest 513 590 40,000  Level Houston Center
12:00AM 31.7411 -92.1267 236° Southwest 522 601 40,000  Level Houston Center
12:01AM 31.6711 -92.2711 240° Southwest 512 589 40,000  Level Houston Center
12:02AM 31.5992 -92.4133 239° Southwest 509 586 40,000  Level Houston Center
12:03AM 31.5283 -92.5553 240° Southwest 506 582 40,000  Level Houston Center
12:04AM 31.4583 -92.6978 240° Southwest 506 582 40,000  Level Houston Center
12:05AM 31.3833 -92.8358 238° Southwest 498 573 40,000  Level Houston Center
12:06AM 31.3106 -92.9767 239° Southwest 502 578 40,000  Level Houston Center
12:07AM 31.2239 -93.1464 239° Southwest 508 585 40,000  Level Houston Center
12:08AM 31.1369 -93.2731 231° Southwest 504 580 40,000  Level Houston Center
12:09AM 31.0481 -93.3981 230° Southwest 503 579 40,000 -60 Level Houston Center
12:10AM 30.9578 -93.5222 230° Southwest 504 580 39,900 -900 Descending Houston Center
12:11AM 30.8683 -93.6444 230° Southwest 501 577 38,300 -1,620 Descending Houston Center
12:12AM 30.7814 -93.7650 230° Southwest 496 571 36,700 -2,040 Descending Houston Center
12:13AM 30.6908 -93.8875 229° Southwest 504 580 34,200 -2,520 Descending Houston Center
12:14AM 30.6031 -94.0089 230° Southwest 499 574 31,700 -2,400 Descending Houston Center
12:15AM 30.5147 -94.1269 229° Southwest 492 566 29,500 -2,340 Descending Houston Center
12:16AM 30.4292 -94.2450 230° Southwest 483 556 27,000 -2,580 Descending Houston Center
12:17AM 30.3389 -94.3631 228° Southwest 476 548 24,500 -2,640 Descending Houston Center
12:18AM 30.2586 -94.4850 233° Southwest 456 525 21,900 -2,580 Descending Houston Center
12:19AM 30.1900 -94.6003 235° Southwest 444 511 19,400 -2,640 Descending Houston Center
12:20AM 30.1192 -94.7156 235° Southwest 427 491 16,600 -2,700 Descending Houston Center
12:21AM 30.0536 -94.8231 235° Southwest 406 467 14,000 -2,580 Descending Houston Center
12:22AM 29.9928 -94.9219 235° Southwest 389 448 11,300 -1,980 Descending Houston Center
12:23AM 29.9389 -95.0086 234° Southwest 336 387 10,000 -1,680 Descending Houston Center
12:24AM 29.8925 -95.0833 234° Southwest 289 333 8,000 -1,560 Descending Houston Center
12:25AM 29.8475 -95.1561 235° Southwest 282 325 6,900 -1,320 Descending Houston Center
12:26AM 29.8072 -95.2200 234° Southwest 253 291 5,400 -1,620 Descending Houston Center
12:27AM 29.7722 -95.2856 238° Southwest 246 283 3,700 -1,800 Descending Houston Center
12:28AM 29.7522 -95.3456 249° West 213 245 1,800 -1,260 Descending Houston Center
12:29AM 29.7108 -95.3544 191° South 144 166 1,200 -360 Descending Houston Center
12:30AM 29.6875 -95.3292 137° Southeast 140 161 1,100 -360 Descending Houston Center
12:31AM 29.6633 -95.3006 134° Southeast 128 147 500 -480 Descending Houston Center
12:32AM 29.6344 -95.2664 134° Southeast 127 146 200 -300 Descending Houston Center